createdAt,value
2016-08-25T00:01:09.967Z,1014.91
2016-08-25T00:02:22.960Z,1014.91
2016-08-25T00:03:35.942Z,1014.9
2016-08-25T00:04:48.921Z,1014.9
2016-08-25T00:06:01.911Z,1014.91
2016-08-25T00:07:14.888Z,1014.94
2016-08-25T00:08:27.867Z,1014.92
2016-08-25T00:09:41.054Z,1014.93
2016-08-25T00:10:54.035Z,1014.93
2016-08-25T00:12:07.231Z,1014.93
2016-08-25T00:13:20.210Z,1014.9
2016-08-25T00:14:33.589Z,1014.94
2016-08-25T00:15:46.563Z,1014.91
2016-08-25T00:16:59.551Z,1014.91
2016-08-25T00:18:12.538Z,1014.92
2016-08-25T00:19:25.527Z,1014.93
2016-08-25T00:20:38.515Z,1014.92
2016-08-25T00:21:51.510Z,1014.94
2016-08-25T00:23:04.698Z,1014.93
2016-08-25T00:24:17.687Z,1014.97
2016-08-25T00:25:30.665Z,1014.95
2016-08-25T00:26:43.648Z,1014.96
2016-08-25T00:27:56.643Z,1014.97
2016-08-25T00:29:09.626Z,1014.96
2016-08-25T00:30:22.607Z,1014.93
2016-08-25T00:31:35.596Z,1014.92
2016-08-25T00:32:48.574Z,1014.93
2016-08-25T00:34:01.551Z,1014.94
2016-08-25T00:35:14.536Z,1014.92
2016-08-25T00:36:27.521Z,1014.92
2016-08-25T00:37:40.501Z,1014.92
2016-08-25T00:38:53.478Z,1014.89
2016-08-25T00:40:06.462Z,1014.93
2016-08-25T00:41:19.458Z,1014.91
2016-08-25T00:42:32.460Z,1014.88
2016-08-25T00:43:45.447Z,1014.89
2016-08-25T00:44:58.423Z,1014.87
2016-08-25T00:46:11.426Z,1014.87
2016-08-25T00:47:24.410Z,1014.89
2016-08-25T00:48:37.400Z,1014.83
2016-08-25T00:49:50.389Z,1014.87
2016-08-25T00:51:03.384Z,1014.9
2016-08-25T00:52:16.387Z,1014.87
2016-08-25T00:53:29.519Z,1014.86
2016-08-25T00:54:42.500Z,1014.87
2016-08-25T00:55:55.491Z,1014.9
2016-08-25T00:57:08.482Z,1014.86
2016-08-25T00:58:21.470Z,1014.87
2016-08-25T00:59:34.450Z,1014.89
2016-08-25T01:00:47.435Z,1014.89
2016-08-25T01:02:00.423Z,1014.89
2016-08-25T01:03:13.423Z,1014.88
2016-08-25T01:04:26.410Z,1014.91
2016-08-25T01:05:39.389Z,1014.86
2016-08-25T01:06:52.372Z,1014.85
2016-08-25T01:08:05.552Z,1014.87
2016-08-25T01:09:18.543Z,1014.87
2016-08-25T01:10:31.525Z,1014.85
2016-08-25T01:11:44.503Z,1014.84
2016-08-25T01:12:57.492Z,1014.85
2016-08-25T01:14:10.478Z,1014.86
2016-08-25T01:15:23.469Z,1014.81
2016-08-25T01:16:36.484Z,1014.85
2016-08-25T01:17:49.464Z,1014.85
2016-08-25T01:19:02.438Z,1014.8
2016-08-25T01:20:15.417Z,1014.83
2016-08-25T01:21:28.395Z,1014.86
2016-08-25T01:22:41.390Z,1014.87
2016-08-25T01:23:54.375Z,1014.9
2016-08-25T01:25:07.555Z,1014.87
2016-08-25T01:26:20.533Z,1014.91
2016-08-25T01:27:33.519Z,1014.94
2016-08-25T01:28:46.709Z,1014.93
2016-08-25T01:29:59.695Z,1014.94
2016-08-25T01:31:12.675Z,1014.93
2016-08-25T01:32:25.672Z,1014.93
2016-08-25T01:33:38.653Z,1014.97
2016-08-25T01:34:51.636Z,1014.99
2016-08-25T01:36:04.629Z,1014.94
2016-08-25T01:37:17.622Z,1014.96
2016-08-25T01:38:30.815Z,1014.94
2016-08-25T01:39:43.794Z,1014.92
2016-08-25T01:40:56.773Z,1015.02
2016-08-25T01:42:09.743Z,1014.92
2016-08-25T01:43:22.738Z,1014.9
2016-08-25T01:44:35.705Z,1014.9
2016-08-25T01:45:48.682Z,1014.86
2016-08-25T01:47:01.874Z,1014.92
2016-08-25T01:48:14.855Z,1014.91
2016-08-25T01:49:27.836Z,1014.86
2016-08-25T01:50:40.804Z,1014.84
2016-08-25T01:51:53.793Z,1014.86
2016-08-25T01:53:06.777Z,1014.87
2016-08-25T01:54:19.813Z,1014.85
2016-08-25T01:55:32.794Z,1014.9
2016-08-25T01:56:45.774Z,1014.9
2016-08-25T01:57:58.958Z,1014.84
2016-08-25T01:59:11.939Z,1014.88
2016-08-25T02:00:25.134Z,1014.9
2016-08-25T02:01:38.346Z,1014.86
2016-08-25T02:02:51.323Z,1014.89
2016-08-25T02:04:04.307Z,1014.93
2016-08-25T02:05:17.297Z,1014.86
2016-08-25T02:06:30.271Z,1014.85
2016-08-25T02:07:43.251Z,1014.82
2016-08-25T02:08:56.232Z,1014.93
2016-08-25T02:10:09.213Z,1014.92
2016-08-25T02:11:22.199Z,1014.89
2016-08-25T02:12:35.174Z,1014.92
2016-08-25T02:13:48.155Z,1014.91
2016-08-25T02:15:01.136Z,1014.91
2016-08-25T02:16:14.119Z,1014.93
2016-08-25T02:17:27.104Z,1014.94
2016-08-25T02:18:40.086Z,1014.96
2016-08-25T02:19:53.083Z,1014.97
2016-08-25T02:21:06.270Z,1014.94
2016-08-25T02:22:19.444Z,1014.93
2016-08-25T02:23:32.435Z,1014.9
2016-08-25T02:24:45.833Z,1014.9
2016-08-25T02:25:59.031Z,1014.95
2016-08-25T02:27:11.998Z,1014.91
2016-08-25T02:28:24.983Z,1014.92
2016-08-25T02:29:37.963Z,1014.9
2016-08-25T02:30:50.947Z,1014.87
2016-08-25T02:32:03.939Z,1014.86
2016-08-25T02:33:16.920Z,1014.9
2016-08-25T02:34:29.920Z,1014.87
2016-08-25T02:35:42.923Z,1014.8
2016-08-25T02:36:55.902Z,1014.83
2016-08-25T02:38:08.891Z,1014.88
2016-08-25T02:39:21.878Z,1014.85
2016-08-25T02:40:34.856Z,1014.84
2016-08-25T02:41:47.828Z,1014.83
2016-08-25T02:43:00.820Z,1014.8
2016-08-25T02:44:13.811Z,1014.84
2016-08-25T02:45:26.807Z,1014.83
2016-08-25T02:46:39.804Z,1014.84
2016-08-25T02:47:52.789Z,1014.8
2016-08-25T02:49:05.968Z,1014.8
2016-08-25T02:50:19.156Z,1014.74
2016-08-25T02:51:32.135Z,1014.75
2016-08-25T02:52:45.344Z,1014.71
2016-08-25T02:53:58.331Z,1014.72
2016-08-25T02:55:11.383Z,1014.7
2016-08-25T02:56:24.368Z,1014.7
2016-08-25T02:57:37.347Z,1014.68
2016-08-25T02:58:50.341Z,1014.72
2016-08-25T03:00:03.528Z,1014.71
2016-08-25T03:01:16.709Z,1014.68
2016-08-25T03:02:29.693Z,1014.69
2016-08-25T03:03:42.675Z,1014.7
2016-08-25T03:04:55.651Z,1014.7
2016-08-25T03:06:08.642Z,1014.68
2016-08-25T03:07:21.640Z,1014.7
2016-08-25T03:08:34.629Z,1014.72
2016-08-25T03:09:47.812Z,1014.71
2016-08-25T03:11:00.797Z,1014.71
2016-08-25T03:12:13.778Z,1014.69
2016-08-25T03:13:26.758Z,1014.67
2016-08-25T03:14:39.741Z,1014.69
2016-08-25T03:15:52.921Z,1014.73
2016-08-25T03:17:05.892Z,1014.65
2016-08-25T03:18:18.864Z,1014.69
2016-08-25T03:19:31.848Z,1014.69
2016-08-25T03:20:44.829Z,1014.69
2016-08-25T03:21:57.805Z,1014.7
2016-08-25T03:23:10.786Z,1014.67
2016-08-25T03:24:23.763Z,1014.69
2016-08-25T03:25:36.747Z,1014.69
2016-08-25T03:26:49.745Z,1014.67
2016-08-25T03:28:02.927Z,1014.67
2016-08-25T03:29:15.895Z,1014.68
2016-08-25T03:30:28.873Z,1014.66
2016-08-25T03:31:41.857Z,1014.64
2016-08-25T03:32:54.844Z,1014.66
2016-08-25T03:34:07.814Z,1014.64
2016-08-25T03:35:20.802Z,1014.61
2016-08-25T03:36:33.985Z,1014.62
2016-08-25T03:37:46.969Z,1014.66
2016-08-25T03:39:00.148Z,1014.62
2016-08-25T03:40:13.325Z,1014.64
2016-08-25T03:41:26.330Z,1014.62
2016-08-25T03:42:39.304Z,1014.62
2016-08-25T03:43:52.283Z,1014.54
2016-08-25T03:45:05.267Z,1014.6
2016-08-25T03:46:18.248Z,1014.56
2016-08-25T03:47:31.225Z,1014.53
2016-08-25T03:48:44.420Z,1014.53
2016-08-25T03:49:57.595Z,1014.5
2016-08-25T03:51:10.577Z,1014.45
2016-08-25T03:52:23.579Z,1014.45
2016-08-25T03:53:36.565Z,1014.44
2016-08-25T03:54:49.541Z,1014.43
2016-08-25T03:56:02.572Z,1014.4
2016-08-25T03:57:15.573Z,1014.41
2016-08-25T03:58:28.556Z,1014.38
2016-08-25T03:59:41.536Z,1014.35
2016-08-25T04:00:54.720Z,1014.39
2016-08-25T04:02:07.708Z,1014.4
2016-08-25T04:03:20.693Z,1014.38
2016-08-25T04:04:33.873Z,1014.43
2016-08-25T04:05:46.851Z,1014.43
2016-08-25T04:06:59.827Z,1014.47
2016-08-25T04:08:12.812Z,1014.47
2016-08-25T04:09:25.989Z,1014.52
2016-08-25T04:10:38.971Z,1014.55
2016-08-25T04:11:51.967Z,1014.51
2016-08-25T04:13:04.951Z,1014.54
2016-08-25T04:14:18.144Z,1014.53
2016-08-25T04:15:31.123Z,1014.59
2016-08-25T04:16:44.093Z,1014.57
2016-08-25T04:17:57.070Z,1014.57
2016-08-25T04:19:10.040Z,1014.56
2016-08-25T04:20:23.023Z,1014.55
2016-08-25T04:21:36.014Z,1014.57
2016-08-25T04:22:48.997Z,1014.55
2016-08-25T04:24:01.984Z,1014.57
2016-08-25T04:25:14.975Z,1014.51
2016-08-25T04:26:27.948Z,1014.52
2016-08-25T04:27:40.928Z,1014.49
2016-08-25T04:28:53.923Z,1014.53
2016-08-25T04:30:06.904Z,1014.51
2016-08-25T04:31:19.880Z,1014.52
2016-08-25T04:32:32.850Z,1014.5
2016-08-25T04:33:46.022Z,1014.54
2016-08-25T04:34:59.006Z,1014.52
2016-08-25T04:36:11.991Z,1014.51
2016-08-25T04:37:24.973Z,1014.49
2016-08-25T04:38:37.967Z,1014.5
2016-08-25T04:39:51.149Z,1014.47
2016-08-25T04:41:04.132Z,1014.49
2016-08-25T04:42:17.113Z,1014.49
2016-08-25T04:43:30.091Z,1014.49
2016-08-25T04:44:43.077Z,1014.48
2016-08-25T04:45:56.057Z,1014.46
2016-08-25T04:47:09.043Z,1014.46
2016-08-25T04:48:22.031Z,1014.5
2016-08-25T04:49:35.416Z,1014.48
2016-08-25T04:50:48.391Z,1014.53
2016-08-25T04:52:01.378Z,1014.48
2016-08-25T04:53:14.558Z,1014.5
2016-08-25T04:54:27.545Z,1014.51
2016-08-25T04:55:40.529Z,1014.5
2016-08-25T04:56:53.553Z,1014.5
2016-08-25T04:58:06.525Z,1014.48
2016-08-25T04:59:19.506Z,1014.49
2016-08-25T05:00:32.491Z,1014.47
2016-08-25T05:01:45.485Z,1014.46
2016-08-25T05:02:58.661Z,1014.49
2016-08-25T05:04:11.840Z,1014.49
2016-08-25T05:05:24.817Z,1014.5
2016-08-25T05:06:37.803Z,1014.48
2016-08-25T05:07:50.795Z,1014.48
2016-08-25T05:09:03.776Z,1014.48
2016-08-25T05:10:16.758Z,1014.47
2016-08-25T05:11:29.939Z,1014.49
2016-08-25T05:12:42.949Z,1014.5
2016-08-25T05:13:55.928Z,1014.52
2016-08-25T05:15:08.915Z,1014.44
2016-08-25T05:16:22.088Z,1014.45
2016-08-25T05:17:35.068Z,1014.45
2016-08-25T05:18:48.053Z,1014.43
2016-08-25T05:20:01.039Z,1014.46
2016-08-25T05:21:14.007Z,1014.47
2016-08-25T05:22:26.981Z,1014.47
2016-08-25T05:23:40.162Z,1014.49
2016-08-25T05:24:53.138Z,1014.5
2016-08-25T05:26:06.119Z,1014.53
2016-08-25T05:27:19.105Z,1014.58
2016-08-25T05:28:32.080Z,1014.63
2016-08-25T05:29:45.050Z,1014.6
2016-08-25T05:30:58.040Z,1014.62
2016-08-25T05:32:11.029Z,1014.6
2016-08-25T05:33:24.208Z,1014.62
2016-08-25T05:34:37.195Z,1014.64
2016-08-25T05:35:50.171Z,1014.63
2016-08-25T05:37:03.150Z,1014.59
2016-08-25T05:38:16.139Z,1014.58
2016-08-25T05:39:29.117Z,1014.58
2016-08-25T05:40:42.096Z,1014.59
2016-08-25T05:41:55.077Z,1014.53
2016-08-25T05:43:08.054Z,1014.53
2016-08-25T05:44:21.033Z,1014.52
2016-08-25T05:45:35.643Z,1014.53
2016-08-25T05:46:48.700Z,1014.52
2016-08-25T05:48:01.684Z,1014.54
2016-08-25T05:49:14.891Z,1014.51
2016-08-25T05:50:27.885Z,1014.5
2016-08-25T05:51:40.869Z,1014.51
2016-08-25T05:52:53.866Z,1014.48
2016-08-25T05:54:06.964Z,1014.47
2016-08-25T05:55:19.940Z,1014.42
2016-08-25T05:56:32.916Z,1014.44
2016-08-25T05:57:45.965Z,1014.41
2016-08-25T05:58:58.950Z,1014.41
2016-08-25T06:00:11.935Z,1014.42
2016-08-25T06:01:24.933Z,1014.4
2016-08-25T06:02:37.918Z,1014.41
2016-08-25T06:03:50.904Z,1014.41
2016-08-25T06:05:03.881Z,1014.42
2016-08-25T06:06:16.858Z,1014.37
2016-08-25T06:07:29.829Z,1014.38
2016-08-25T06:08:42.812Z,1014.3
2016-08-25T06:09:55.997Z,1014.31
2016-08-25T06:11:08.981Z,1014.32
2016-08-25T06:12:21.967Z,1014.33
2016-08-25T06:13:34.947Z,1014.31
2016-08-25T06:14:50.314Z,1014.32
2016-08-25T06:16:03.308Z,1014.31
2016-08-25T06:17:16.304Z,1014.32
2016-08-25T06:18:29.293Z,1014.35
2016-08-25T06:19:42.419Z,1014.34
2016-08-25T06:20:55.427Z,1014.38
2016-08-25T06:22:08.481Z,1014.36
2016-08-25T06:23:21.866Z,1014.39
2016-08-25T06:24:36.429Z,1014.36
2016-08-25T06:25:49.406Z,1014.41
2016-08-25T06:27:02.383Z,1014.35
2016-08-25T06:28:15.384Z,1014.37
2016-08-25T06:29:28.569Z,1014.43
2016-08-25T06:30:41.857Z,1014.4
2016-08-25T06:31:56.116Z,1014.47
2016-08-25T06:33:09.115Z,1014.51
2016-08-25T06:34:22.309Z,1014.46
2016-08-25T06:35:36.610Z,1014.46
2016-08-25T06:36:49.796Z,1014.54
2016-08-25T06:38:02.783Z,1015.42
2016-08-25T06:39:16.499Z,1016.87
2016-08-25T06:40:30.949Z,1016.97
2016-08-25T06:41:49.029Z,1017.11
2016-08-25T06:43:03.019Z,1017.46
2016-08-25T06:44:18.261Z,1017.6
2016-08-25T06:45:32.147Z,1017.01
2016-08-25T06:46:46.781Z,1016.34
2016-08-25T06:48:00.962Z,1016.99
2016-08-25T06:49:15.819Z,1017.52
2016-08-25T06:50:29.380Z,1017.29
2016-08-25T06:51:43.083Z,1017.23
2016-08-25T06:52:56.868Z,1017.29
2016-08-25T06:54:10.510Z,1017.36
2016-08-25T06:55:24.386Z,1017.44
2016-08-25T06:56:37.391Z,1017.52
2016-08-25T06:57:50.427Z,1017.51
2016-08-25T06:59:03.420Z,1017.54
2016-08-25T07:00:16.426Z,1017.73
2016-08-25T07:01:29.415Z,1017.66
2016-08-25T07:02:44.638Z,1017.6
2016-08-25T07:04:02.593Z,1017.57
2016-08-25T07:05:18.302Z,1017.51
2016-08-25T07:06:32.575Z,1017.49
2016-08-25T07:07:48.529Z,1017.41
2016-08-25T07:09:08.497Z,1017.39
2016-08-25T07:10:23.546Z,1017.4
2016-08-25T07:11:37.822Z,1017.32
2016-08-25T07:12:50.822Z,1017.3
2016-08-25T07:14:03.820Z,1017.26
2016-08-25T07:15:17.036Z,1017.13
2016-08-25T07:16:30.041Z,1017.19
2016-08-25T07:17:43.542Z,1017.21
2016-08-25T07:18:58.515Z,1017.23
2016-08-25T07:20:12.018Z,1017.33
2016-08-25T07:21:25.259Z,1017.59
2016-08-25T07:22:38.554Z,1017.62
2016-08-25T07:23:51.778Z,1017.7
2016-08-25T07:25:05.277Z,1017.89
2016-08-25T07:26:19.193Z,1018.01
2016-08-25T07:27:34.772Z,1018.26
2016-08-25T07:28:48.202Z,1018.54
2016-08-25T07:30:01.341Z,1018.72
2016-08-25T07:31:14.662Z,1019.26
2016-08-25T07:32:27.669Z,1019.51
2016-08-25T07:33:40.882Z,1019.88
2016-08-25T07:34:55.491Z,1020.37
2016-08-25T07:36:10.211Z,1020.75
2016-08-25T07:37:23.987Z,1021.53
2016-08-25T07:38:37.520Z,1022.6
2016-08-25T07:39:50.682Z,1023.36
2016-08-25T07:41:04.123Z,1024.69
2016-08-25T07:42:17.154Z,1023.67
2016-08-25T07:43:30.362Z,1020.36
2016-08-25T07:44:47.005Z,1016.78
2016-08-25T07:46:01.748Z,1015.57
2016-08-25T07:47:16.846Z,1015.26
2016-08-25T07:48:29.868Z,1015.2
2016-08-25T07:49:43.953Z,1015.14
2016-08-25T07:51:03.099Z,1015.16
2016-08-25T07:52:25.017Z,1015.1
2016-08-25T07:53:45.178Z,1015.08
2016-08-25T07:55:07.054Z,1015.07
2016-08-25T07:56:20.871Z,1015.06
2016-08-25T07:57:33.879Z,1015.03
2016-08-25T07:58:47.059Z,1014.97
2016-08-25T08:00:00.891Z,1015
2016-08-25T08:01:14.096Z,1014.95
2016-08-25T08:02:27.525Z,1014.93
2016-08-25T08:03:42.538Z,1014.9
2016-08-25T08:04:55.717Z,1014.91
2016-08-25T08:06:08.932Z,1014.92
2016-08-25T08:07:22.219Z,1014.93
2016-08-25T08:08:35.246Z,1014.91
2016-08-25T08:09:48.261Z,1014.91
2016-08-25T08:11:01.276Z,1014.89
2016-08-25T08:12:16.383Z,1014.87
2016-08-25T08:13:48.943Z,1014.89
2016-08-25T08:15:16.460Z,1014.9
2016-08-25T08:16:29.524Z,1014.87
2016-08-25T08:17:42.759Z,1014.86
2016-08-25T08:18:55.782Z,1014.94
2016-08-25T08:20:08.791Z,1014.97
2016-08-25T08:21:21.831Z,1014.91
2016-08-25T08:22:34.837Z,1014.81
2016-08-25T08:23:47.853Z,1014.77
2016-08-25T08:25:00.887Z,1014.75
2016-08-25T08:26:13.890Z,1014.75
2016-08-25T08:27:26.911Z,1014.76
2016-08-25T08:28:39.933Z,1014.72
2016-08-25T08:29:52.943Z,1014.74
2016-08-25T08:31:05.973Z,1014.71
2016-08-25T08:32:18.982Z,1014.65
2016-08-25T08:33:32.196Z,1014.68
2016-08-25T08:34:45.213Z,1014.66
2016-08-25T08:35:58.422Z,1014.7
2016-08-25T08:37:11.474Z,1014.72
2016-08-25T08:38:24.917Z,1014.68
2016-08-25T08:39:37.930Z,1014.69
2016-08-25T08:40:50.948Z,1014.65
2016-08-25T08:42:03.955Z,1014.65
2016-08-25T08:43:16.958Z,1014.7
2016-08-25T08:44:30.012Z,1014.68
2016-08-25T08:45:43.011Z,1014.68
2016-08-25T08:46:57.759Z,1014.74
2016-08-25T08:48:10.904Z,1014.68
2016-08-25T08:49:23.912Z,1014.66
2016-08-25T08:50:36.911Z,1014.65
2016-08-25T08:51:49.943Z,1014.66
2016-08-25T08:53:03.077Z,1014.6
2016-08-25T08:54:18.101Z,1014.68
2016-08-25T08:55:31.323Z,1014.7
2016-08-25T08:56:44.528Z,1014.77
2016-08-25T08:57:57.569Z,1014.7
2016-08-25T08:59:10.715Z,1014.62
2016-08-25T09:00:23.720Z,1014.6
2016-08-25T09:01:36.874Z,1014.64
2016-08-25T09:02:49.885Z,1014.69
2016-08-25T09:04:02.890Z,1014.67
2016-08-25T09:05:15.935Z,1014.64
2016-08-25T09:06:28.945Z,1014.64
2016-08-25T09:07:41.944Z,1014.72
2016-08-25T09:08:54.997Z,1040.44
2016-08-25T09:10:08.055Z,1039.08
2016-08-25T09:11:21.067Z,1038.89
2016-08-25T09:12:34.093Z,1039.28
2016-08-25T09:13:47.106Z,1038.96
2016-08-25T09:15:00.113Z,1037.6
2016-08-25T09:16:13.136Z,1038.21
2016-08-25T09:17:26.159Z,1036.92
2016-08-25T09:18:39.393Z,1037.3
2016-08-25T09:19:52.397Z,1036.75
2016-08-25T09:21:05.407Z,1035.71
2016-08-25T09:22:18.413Z,1035.52
2016-08-25T09:23:31.427Z,1033.56
2016-08-25T09:24:44.563Z,1032.28
2016-08-25T09:25:57.810Z,1030.47
2016-08-25T09:27:10.868Z,1032.81
2016-08-25T09:28:23.883Z,1031.55
2016-08-25T09:29:36.914Z,1030.67
2016-08-25T09:30:50.165Z,1030.71
2016-08-25T09:32:03.172Z,1031.11
2016-08-25T09:33:16.186Z,1030.1
2016-08-25T09:34:29.189Z,1030.05
2016-08-25T09:35:42.420Z,1030.96
2016-08-25T09:36:55.438Z,1030.69
2016-08-25T09:38:08.444Z,1028.96
2016-08-25T09:39:21.445Z,1026.63
2016-08-25T09:40:35.164Z,1026.37
2016-08-25T09:41:54.940Z,1027.01
2016-08-25T09:43:13.146Z,1027.14
2016-08-25T09:44:26.158Z,1026.26
2016-08-25T09:45:39.224Z,1025.4
2016-08-25T09:46:52.453Z,1025.34
2016-08-25T09:48:05.542Z,1025.06
2016-08-25T09:49:18.561Z,1023.74
2016-08-25T09:50:31.778Z,1023.15
2016-08-25T09:51:44.845Z,1023.22
2016-08-25T09:52:57.894Z,1021.97
2016-08-25T09:54:10.902Z,1021.34
2016-08-25T09:55:23.996Z,1021.14
2016-08-25T09:56:37.050Z,1020.08
2016-08-25T09:57:50.484Z,1019.71
2016-08-25T09:59:04.237Z,1018.9
2016-08-25T10:00:17.579Z,1018.3
2016-08-25T10:01:31.033Z,1017.23
2016-08-25T10:02:44.831Z,1016.65
2016-08-25T10:03:57.965Z,1016.01
2016-08-25T10:05:10.961Z,1015.47
2016-08-25T10:06:23.963Z,1015.22
2016-08-25T10:07:36.969Z,1014.9
2016-08-25T10:08:50.395Z,1014.66
2016-08-25T10:10:03.407Z,1014.55
2016-08-25T10:11:16.419Z,1014.48
2016-08-25T10:12:29.438Z,1014.39
2016-08-25T10:13:42.642Z,1014.39
2016-08-25T10:14:55.847Z,1014.42
2016-08-25T10:16:09.053Z,1014.38
2016-08-25T10:17:22.262Z,1014.36
2016-08-25T10:18:35.494Z,1014.37
2016-08-25T10:19:48.498Z,1014.27
2016-08-25T10:21:01.522Z,1014.22
2016-08-25T10:22:14.535Z,1014.34
2016-08-25T10:23:27.540Z,1014.34
2016-08-25T10:24:40.549Z,1014.35
2016-08-25T10:25:53.757Z,1014.33
2016-08-25T10:27:06.777Z,1014.27
2016-08-25T10:28:19.786Z,1014.24
2016-08-25T10:29:32.791Z,1014.3
2016-08-25T10:30:45.791Z,1014.28
2016-08-25T10:31:58.829Z,1014.28
2016-08-25T10:33:11.840Z,1014.36
2016-08-25T10:34:24.861Z,1014.3
2016-08-25T10:35:37.869Z,1014.18
2016-08-25T10:36:50.890Z,1014.41
2016-08-25T10:38:03.903Z,1014.47
2016-08-25T10:39:17.101Z,1014.5
2016-08-25T10:40:30.107Z,1014.57
2016-08-25T10:41:43.318Z,1014.61
2016-08-25T10:42:56.354Z,1014.68
2016-08-25T10:44:09.574Z,1014.88
2016-08-25T10:45:22.585Z,1015.15
2016-08-25T10:46:35.574Z,1015.51
2016-08-25T10:47:48.577Z,1015.21
2016-08-25T10:49:01.590Z,1014.86
2016-08-25T10:50:14.792Z,1014.37
2016-08-25T10:51:27.797Z,1014.07
2016-08-25T10:52:40.839Z,1013.86
2016-08-25T10:53:53.853Z,1013.77
2016-08-25T10:55:06.849Z,1013.78
2016-08-25T10:56:19.861Z,1013.76
2016-08-25T10:57:32.861Z,1013.7
2016-08-25T10:58:46.690Z,1013.68
2016-08-25T11:00:01.269Z,1013.77
2016-08-25T11:01:15.953Z,1013.9
2016-08-25T11:02:29.608Z,1013.82
2016-08-25T11:03:44.193Z,1013.76
2016-08-25T11:04:59.137Z,1013.75
2016-08-25T11:06:12.803Z,1013.64
2016-08-25T11:07:28.021Z,1013.61
2016-08-25T11:08:44.607Z,1013.6
2016-08-25T11:09:58.752Z,1013.65
2016-08-25T11:11:12.364Z,1013.61
2016-08-25T11:12:25.429Z,1013.52
2016-08-25T11:13:40.090Z,1013.52
2016-08-25T11:14:53.162Z,1013.49
2016-08-25T11:16:06.192Z,1013.51
2016-08-25T11:17:19.254Z,1013.49
2016-08-25T11:18:32.303Z,1013.47
2016-08-25T11:19:45.308Z,1013.49
2016-08-25T11:20:58.507Z,1013.43
2016-08-25T11:22:11.734Z,1013.33
2016-08-25T11:23:24.736Z,1013.32
2016-08-25T11:24:37.743Z,1013.26
2016-08-25T11:25:50.748Z,1013.22
2016-08-25T11:27:03.765Z,1013.18
2016-08-25T11:28:16.796Z,1013.14
2016-08-25T11:29:29.798Z,1013.12
2016-08-25T11:30:42.801Z,1013.13
2016-08-25T11:31:55.799Z,1013.09
2016-08-25T11:33:08.809Z,1013.03
2016-08-25T11:34:21.826Z,1013.04
2016-08-25T11:35:34.830Z,1013.02
2016-08-25T11:36:47.833Z,1013.02
2016-08-25T11:38:00.832Z,1013.01
2016-08-25T11:39:13.832Z,1012.97
2016-08-25T11:40:26.845Z,1012.99
2016-08-25T11:41:39.853Z,1012.92
2016-08-25T11:42:52.859Z,1012.92
2016-08-25T11:44:05.890Z,1012.88
2016-08-25T11:45:19.099Z,1012.84
2016-08-25T11:46:32.610Z,1012.86
2016-08-25T11:47:47.771Z,1012.84
2016-08-25T11:49:03.793Z,1012.85
2016-08-25T11:50:18.067Z,1012.82
2016-08-25T11:51:31.084Z,1012.82
2016-08-25T11:52:44.093Z,1012.76
2016-08-25T11:53:57.120Z,1012.72
2016-08-25T11:55:10.120Z,1012.72
2016-08-25T11:56:23.143Z,1012.73
2016-08-25T11:57:36.147Z,1012.67
2016-08-25T11:58:49.161Z,1012.69
2016-08-25T12:00:02.214Z,1012.68
2016-08-25T12:01:15.220Z,1012.67
2016-08-25T12:02:28.224Z,1012.66
2016-08-25T12:03:41.217Z,1012.65
2016-08-25T12:04:54.212Z,1012.63
2016-08-25T12:06:07.430Z,1012.65
2016-08-25T12:07:20.442Z,1012.61
2016-08-25T12:08:33.445Z,1012.62
2016-08-25T12:09:46.451Z,1012.6
2016-08-25T12:10:59.461Z,1012.58
2016-08-25T12:12:12.478Z,1012.56
2016-08-25T12:13:25.473Z,1012.57
2016-08-25T12:14:38.485Z,1012.58
2016-08-25T12:15:51.488Z,1012.57
2016-08-25T12:17:04.504Z,1012.6
2016-08-25T12:18:17.528Z,1012.53
2016-08-25T12:19:30.525Z,1012.63
2016-08-25T12:20:43.745Z,1012.62
2016-08-25T12:21:56.783Z,1012.61
2016-08-25T12:23:09.792Z,1012.57
2016-08-25T12:24:22.791Z,1012.52
2016-08-25T12:25:35.798Z,1012.49
2016-08-25T12:26:48.802Z,1012.48
2016-08-25T12:28:01.823Z,1012.48
2016-08-25T12:29:14.830Z,1012.43
2016-08-25T12:30:27.824Z,1012.44
2016-08-25T12:31:40.919Z,1012.4
2016-08-25T12:32:53.933Z,1012.39
2016-08-25T12:34:06.921Z,1012.38
2016-08-25T12:35:20.130Z,1012.3
2016-08-25T12:36:33.374Z,1012.26
2016-08-25T12:37:46.367Z,1012.28
2016-08-25T12:38:59.376Z,1012.27
2016-08-25T12:40:12.372Z,1012.24
2016-08-25T12:41:25.391Z,1012.25
2016-08-25T12:42:38.622Z,1012.18
2016-08-25T12:43:51.621Z,1012.18
2016-08-25T12:45:04.912Z,1012.15
2016-08-25T12:46:17.925Z,1012.19
2016-08-25T12:47:31.132Z,1012.19
2016-08-25T12:48:44.142Z,1012.18
2016-08-25T12:49:57.142Z,1012.15
2016-08-25T12:51:10.155Z,1012.14
2016-08-25T12:52:23.552Z,1012.06
2016-08-25T12:53:36.748Z,1012.09
2016-08-25T12:54:49.764Z,1012.04
2016-08-25T12:56:02.780Z,1012.02
2016-08-25T12:57:15.778Z,1011.98
2016-08-25T12:58:29.191Z,1011.95
2016-08-25T12:59:42.197Z,1011.95
2016-08-25T13:00:55.258Z,1011.94
2016-08-25T13:02:08.255Z,1011.89
2016-08-25T13:03:21.276Z,1011.88
2016-08-25T13:04:34.279Z,1011.88
2016-08-25T13:05:47.307Z,1011.82
2016-08-25T13:07:00.308Z,1011.74
2016-08-25T13:08:13.312Z,1011.85
2016-08-25T13:09:26.299Z,1011.82
2016-08-25T13:10:39.300Z,1011.82
2016-08-25T13:11:52.544Z,1011.83
2016-08-25T13:13:05.758Z,1011.85
2016-08-25T13:14:18.758Z,1011.81
2016-08-25T13:15:31.759Z,1011.82
2016-08-25T13:16:44.783Z,1011.85
2016-08-25T13:17:57.789Z,1011.83
2016-08-25T13:19:10.906Z,1011.79
2016-08-25T13:20:24.434Z,1011.81
2016-08-25T13:21:37.617Z,1011.77
2016-08-25T13:22:50.620Z,1011.72
2016-08-25T13:24:03.609Z,1011.7
2016-08-25T13:25:16.606Z,1011.68
2016-08-25T13:26:29.830Z,1011.65
2016-08-25T13:27:42.843Z,1011.6
2016-08-25T13:28:55.844Z,1011.62
2016-08-25T13:30:08.841Z,1011.6
2016-08-25T13:31:21.835Z,1011.62
2016-08-25T13:32:34.839Z,1011.61
2016-08-25T13:33:48.053Z,1011.61
2016-08-25T13:35:01.056Z,1011.61
2016-08-25T13:36:14.062Z,1011.63
2016-08-25T13:37:27.057Z,1011.59
2016-08-25T13:38:40.265Z,1011.66
2016-08-25T13:39:53.257Z,1011.64
2016-08-25T13:41:06.271Z,1011.65
2016-08-25T13:42:19.474Z,1011.6
2016-08-25T13:43:32.477Z,1011.61
2016-08-25T13:44:45.470Z,1011.59
2016-08-25T13:45:58.467Z,1011.57
2016-08-25T13:47:11.468Z,1011.56
2016-08-25T13:48:24.467Z,1011.54
2016-08-25T13:49:37.463Z,1011.51
2016-08-25T13:50:50.463Z,1011.51
2016-08-25T13:52:03.463Z,1011.56
2016-08-25T13:53:16.465Z,1011.55
2016-08-25T13:54:29.658Z,1011.51
2016-08-25T13:55:42.652Z,1011.46
2016-08-25T13:56:55.656Z,1011.47
2016-08-25T13:58:08.670Z,1011.46
2016-08-25T13:59:21.664Z,1011.46
2016-08-25T14:00:34.670Z,1011.4
2016-08-25T14:01:47.719Z,1011.43
2016-08-25T14:03:00.717Z,1011.37
2016-08-25T14:04:13.710Z,1011.39
2016-08-25T14:05:26.924Z,1011.37
2016-08-25T14:06:39.926Z,1011.34
2016-08-25T14:07:53.147Z,1011.31
2016-08-25T14:09:07.152Z,1011.35
2016-08-25T14:10:20.140Z,1011.33
2016-08-25T14:11:33.151Z,1011.31
2016-08-25T14:12:46.151Z,1011.29
2016-08-25T14:13:59.142Z,1011.28
2016-08-25T14:15:12.140Z,1011.28
2016-08-25T14:16:25.161Z,1011.25
2016-08-25T14:17:38.163Z,1011.24
2016-08-25T14:18:51.163Z,1011.3
2016-08-25T14:20:04.171Z,1011.28
2016-08-25T14:21:17.616Z,1011.25
2016-08-25T14:22:30.732Z,1011.21
2016-08-25T14:23:51.813Z,1011.24
2016-08-25T14:25:05.803Z,1011.19
2016-08-25T14:26:19.669Z,1011.18
2016-08-25T14:27:36.475Z,1011.14
2016-08-25T14:28:49.497Z,1011.15
2016-08-25T14:30:02.549Z,1011.11
2016-08-25T14:31:15.567Z,1011.05
2016-08-25T14:32:28.564Z,1011.04
2016-08-25T14:33:41.561Z,1011.03
2016-08-25T14:34:54.560Z,1011.06
2016-08-25T14:36:07.561Z,1011.05
2016-08-25T14:37:20.575Z,1011.02
2016-08-25T14:38:33.570Z,1011.03
2016-08-25T14:39:46.767Z,1011
2016-08-25T14:40:59.756Z,1010.97
2016-08-25T14:42:12.759Z,1010.95
2016-08-25T14:43:25.750Z,1010.91
2016-08-25T14:44:38.957Z,1010.88
2016-08-25T14:45:51.955Z,1010.88
2016-08-25T14:47:04.952Z,1010.88
2016-08-25T14:48:18.154Z,1010.88
2016-08-25T14:49:31.149Z,1010.86
2016-08-25T14:50:44.134Z,1010.87